createdAt,value
2018-07-03T00:02:13.097Z,12.54
2018-07-03T00:04:42.831Z,12.54
2018-07-03T00:07:12.613Z,12.53
2018-07-03T00:09:43.093Z,12.55
2018-07-03T00:12:12.875Z,12.55
2018-07-03T00:14:42.655Z,12.48
2018-07-03T00:17:17.046Z,12.40
2018-07-03T00:19:50.559Z,12.35
2018-07-03T00:22:21.347Z,12.35
2018-07-03T00:24:51.117Z,12.31
2018-07-03T00:27:20.825Z,12.30
2018-07-03T00:29:50.509Z,12.31
2018-07-03T00:32:20.318Z,12.28
2018-07-03T00:34:50.112Z,12.25
2018-07-03T00:37:19.908Z,12.18
2018-07-03T00:39:49.677Z,12.16
2018-07-03T00:42:19.536Z,12.08
2018-07-03T00:44:49.333Z,12.01
2018-07-03T00:47:19.287Z,12.00
2018-07-03T00:49:49.113Z,12.06
2018-07-03T00:52:18.864Z,12.01
2018-07-03T00:54:48.587Z,11.97
2018-07-03T00:57:18.428Z,11.93
2018-07-03T01:00:05.034Z,11.94
2018-07-03T01:02:34.960Z,11.92
2018-07-03T01:05:04.683Z,11.90
2018-07-03T01:07:34.560Z,11.88
2018-07-03T01:10:04.798Z,11.81
2018-07-03T01:12:34.542Z,11.80
2018-07-03T01:15:04.484Z,11.73
2018-07-03T01:17:34.291Z,11.72
2018-07-03T01:20:04.344Z,11.70
2018-07-03T01:22:34.258Z,11.65
2018-07-03T01:25:04.200Z,11.60
2018-07-03T01:27:33.968Z,11.54
2018-07-03T01:30:03.808Z,11.52
2018-07-03T01:32:33.632Z,11.50
2018-07-03T01:35:03.416Z,11.52
2018-07-03T01:37:33.186Z,11.44
2018-07-03T01:40:02.952Z,11.39
2018-07-03T01:42:32.837Z,11.37
2018-07-03T01:45:02.594Z,11.33
2018-07-03T01:47:32.363Z,11.31
2018-07-03T01:50:02.151Z,11.45
2018-07-03T01:52:31.943Z,11.43
2018-07-03T01:55:01.740Z,11.38
2018-07-03T01:57:31.590Z,11.35
2018-07-03T02:00:01.411Z,11.26
2018-07-03T02:02:36.036Z,11.15
2018-07-03T02:05:05.935Z,11.08
2018-07-03T02:07:35.852Z,11.03
2018-07-03T02:10:05.813Z,11.01
2018-07-03T02:12:35.643Z,10.97
2018-07-03T02:15:05.485Z,10.92
2018-07-03T02:17:35.283Z,10.91
2018-07-03T02:20:05.152Z,10.94
2018-07-03T02:22:35.036Z,10.90
2018-07-03T02:25:05.034Z,10.95
2018-07-03T02:27:34.811Z,10.92
2018-07-03T02:30:04.932Z,10.95
2018-07-03T02:32:34.693Z,10.97
2018-07-03T02:35:04.709Z,11.00
2018-07-03T02:37:34.701Z,10.98
2018-07-03T02:40:04.668Z,10.95
2018-07-03T02:42:34.598Z,10.94
2018-07-03T02:45:04.776Z,10.87
2018-07-03T02:47:34.616Z,10.85
2018-07-03T02:50:05.060Z,10.80
2018-07-03T02:52:34.855Z,10.81
2018-07-03T02:55:04.787Z,10.78
2018-07-03T02:57:34.616Z,10.76
2018-07-03T03:00:05.355Z,10.74
2018-07-03T03:02:35.208Z,10.79
2018-07-03T03:05:05.167Z,10.87
2018-07-03T03:07:35.018Z,10.99
2018-07-03T03:10:05.036Z,11.01
2018-07-03T03:12:34.847Z,10.98
2018-07-03T03:15:05.299Z,11.05
2018-07-03T03:17:35.290Z,11.07
2018-07-03T03:20:05.271Z,11.06
2018-07-03T03:22:35.079Z,11.02
2018-07-03T03:25:04.924Z,11.01
2018-07-03T03:27:34.727Z,11.05
2018-07-03T03:30:05.049Z,11.08
2018-07-03T03:32:34.848Z,11.10
2018-07-03T03:35:04.352Z,11.13
2018-07-03T03:37:34.071Z,11.15
2018-07-03T03:40:03.971Z,11.17
2018-07-03T03:42:33.781Z,11.23
2018-07-03T03:45:03.533Z,11.25
2018-07-03T03:47:33.351Z,11.30
2018-07-03T03:50:03.373Z,11.37
2018-07-03T03:52:33.143Z,11.41
2018-07-03T03:55:02.959Z,11.48
2018-07-03T03:57:32.734Z,11.57
2018-07-03T04:00:02.646Z,11.63
2018-07-03T04:02:32.465Z,11.73
2018-07-03T04:05:02.255Z,11.79
2018-07-03T04:07:32.383Z,11.88
2018-07-03T04:10:03.058Z,12.01
2018-07-03T04:12:32.799Z,12.09
2018-07-03T04:15:02.571Z,12.16
2018-07-03T04:17:32.408Z,12.20
2018-07-03T04:20:02.143Z,12.34
2018-07-03T04:22:31.901Z,12.49
2018-07-03T04:25:01.325Z,12.58
2018-07-03T04:27:31.159Z,12.67
2018-07-03T04:30:01.942Z,12.83
2018-07-03T04:32:32.055Z,12.88
2018-07-03T04:35:01.943Z,12.97
2018-07-03T04:37:31.714Z,13.11
2018-07-03T04:40:01.768Z,13.14
2018-07-03T04:42:31.770Z,13.20
2018-07-03T04:45:01.575Z,13.27
2018-07-03T04:47:32.113Z,13.35
2018-07-03T04:50:01.842Z,13.48
2018-07-03T04:52:31.644Z,13.58
2018-07-03T04:55:02.332Z,13.66
2018-07-03T04:57:32.080Z,13.77
2018-07-03T05:00:02.149Z,13.87
2018-07-03T05:02:32.078Z,13.96
2018-07-03T05:05:02.108Z,14.01
2018-07-03T05:07:32.015Z,14.11
2018-07-03T05:10:01.810Z,14.19
2018-07-03T05:12:31.532Z,14.32
2018-07-03T05:15:01.546Z,14.42
2018-07-03T05:17:31.375Z,14.59
2018-07-03T05:20:01.207Z,14.80
2018-07-03T05:22:30.999Z,15.07
2018-07-03T05:25:00.803Z,15.35
2018-07-03T05:27:30.547Z,15.64
2018-07-03T05:30:00.407Z,15.87
2018-07-03T05:32:30.551Z,16.08
2018-07-03T05:35:00.374Z,16.25
2018-07-03T05:37:30.183Z,16.41
2018-07-03T05:40:00.521Z,16.58
2018-07-03T05:42:30.351Z,16.71
2018-07-03T05:45:00.131Z,16.86
2018-07-03T05:47:29.903Z,16.96
2018-07-03T05:49:59.730Z,17.07
2018-07-03T05:52:30.099Z,17.17
2018-07-03T05:54:59.854Z,17.30
2018-07-03T05:57:29.577Z,17.34
2018-07-03T05:59:59.307Z,17.41
2018-07-03T06:02:29.131Z,17.48
2018-07-03T06:04:58.954Z,17.55
2018-07-03T06:07:28.810Z,17.67
2018-07-03T06:09:59.130Z,17.52
2018-07-03T06:12:28.932Z,17.83
2018-07-03T06:14:58.706Z,17.88
2018-07-03T06:17:28.655Z,17.95
2018-07-03T06:19:58.077Z,18.01
2018-07-03T06:22:27.987Z,18.10
2018-07-03T06:24:57.910Z,18.22
2018-07-03T06:27:27.710Z,18.28
2018-07-03T06:29:57.596Z,18.40
2018-07-03T06:32:27.500Z,18.42
2018-07-03T06:34:57.430Z,18.45
2018-07-03T06:37:27.464Z,18.59
2018-07-03T06:39:57.158Z,18.56
2018-07-03T06:42:26.986Z,18.75
2018-07-03T06:44:56.879Z,18.93
2018-07-03T06:47:26.746Z,18.95
2018-07-03T06:49:57.525Z,19.06
2018-07-03T06:52:27.429Z,19.19
2018-07-03T06:54:57.331Z,19.22
2018-07-03T06:57:27.511Z,19.28
2018-07-03T06:59:57.358Z,19.24
2018-07-03T07:02:27.191Z,19.23
2018-07-03T07:04:56.994Z,19.51
2018-07-03T07:07:26.764Z,19.53
2018-07-03T07:09:57.208Z,19.62
2018-07-03T07:12:27.078Z,19.48
2018-07-03T07:14:57.849Z,19.62
2018-07-03T07:17:27.800Z,19.79
2018-07-03T07:19:57.709Z,19.85
2018-07-03T07:22:27.587Z,19.79
2018-07-03T07:24:57.436Z,19.96
2018-07-03T07:27:27.215Z,19.97
2018-07-03T07:29:56.987Z,20.07
2018-07-03T07:32:26.970Z,20.15
2018-07-03T07:34:56.758Z,20.23
2018-07-03T07:37:26.690Z,20.27
2018-07-03T07:39:56.383Z,20.14
2018-07-03T07:42:26.234Z,20.31
2018-07-03T07:44:56.719Z,20.31
2018-07-03T07:47:26.826Z,20.06
2018-07-03T07:49:56.590Z,20.34
2018-07-03T07:52:26.495Z,20.45
2018-07-03T07:54:56.725Z,20.44
2018-07-03T07:57:26.483Z,20.53
2018-07-03T07:59:56.344Z,20.60
2018-07-03T08:02:26.209Z,20.42
2018-07-03T08:04:56.570Z,20.52
2018-07-03T08:07:26.346Z,20.61
2018-07-03T08:09:57.931Z,20.84
2018-07-03T08:12:27.879Z,20.84
2018-07-03T08:14:57.891Z,20.71
2018-07-03T08:17:29.795Z,20.88
2018-07-03T08:20:00.716Z,20.86
2018-07-03T08:22:31.949Z,20.97
2018-07-03T08:25:01.480Z,20.92
2018-07-03T08:27:32.366Z,20.85
2018-07-03T08:30:02.087Z,20.95
2018-07-03T08:32:33.016Z,21.04
2018-07-03T08:35:02.845Z,20.94
2018-07-03T08:37:32.919Z,20.92
2018-07-03T08:40:03.933Z,21.17
2018-07-03T08:42:33.857Z,21.22
2018-07-03T08:45:03.810Z,21.31
2018-07-03T08:47:33.637Z,21.37
2018-07-03T08:50:04.085Z,21.39
2018-07-03T08:52:34.585Z,21.56
2018-07-03T08:55:05.205Z,21.44
2018-07-03T08:57:35.767Z,21.31
2018-07-03T09:00:09.029Z,21.67
2018-07-03T09:02:39.260Z,21.63
2018-07-03T09:05:09.819Z,21.65
2018-07-03T09:07:46.049Z,21.59
2018-07-03T09:10:16.705Z,21.56
2018-07-03T09:12:47.302Z,21.70
2018-07-03T09:15:20.555Z,21.71
2018-07-03T09:17:51.043Z,21.79
2018-07-03T09:20:22.682Z,21.60
2018-07-03T09:22:53.585Z,21.74
2018-07-03T09:25:24.681Z,21.83
2018-07-03T09:27:57.221Z,21.90
2018-07-03T09:30:29.662Z,22.01
2018-07-03T09:32:59.536Z,22.00
2018-07-03T09:35:29.484Z,22.32
2018-07-03T09:37:59.224Z,22.38
2018-07-03T09:40:29.047Z,22.42
2018-07-03T09:42:58.884Z,22.43
2018-07-03T09:45:28.716Z,22.48
2018-07-03T09:47:58.562Z,22.53
2018-07-03T09:50:28.716Z,22.59
2018-07-03T09:52:58.668Z,22.77
2018-07-03T09:55:29.204Z,22.59
2018-07-03T09:57:59.196Z,22.60
2018-07-03T10:00:34.236Z,22.58
2018-07-03T10:03:04.012Z,22.53
2018-07-03T10:05:33.841Z,22.59
2018-07-03T10:08:03.668Z,22.44
2018-07-03T10:10:33.444Z,22.57
2018-07-03T10:13:03.364Z,22.64
2018-07-03T10:15:33.164Z,22.67
2018-07-03T10:18:02.979Z,22.79
2018-07-03T10:20:33.125Z,22.95
2018-07-03T10:23:03.024Z,23.09
2018-07-03T10:25:32.949Z,22.94
2018-07-03T10:28:02.707Z,22.91
2018-07-03T10:30:33.181Z,22.95
2018-07-03T10:33:03.033Z,23.23
2018-07-03T10:35:32.916Z,23.31
2018-07-03T10:38:02.742Z,23.35
2018-07-03T10:40:32.649Z,23.37
2018-07-03T10:43:02.608Z,23.57
2018-07-03T10:45:32.527Z,23.65
2018-07-03T10:48:02.294Z,23.42
2018-07-03T10:50:32.060Z,23.45
2018-07-03T10:53:01.856Z,23.27
2018-07-03T10:55:31.698Z,23.53
2018-07-03T10:58:01.655Z,23.60
2018-07-03T11:00:31.514Z,23.56
2018-07-03T11:03:01.424Z,23.45
2018-07-03T11:05:31.220Z,23.59
2018-07-03T11:08:01.092Z,23.64
2018-07-03T11:10:30.881Z,23.79
2018-07-03T11:13:00.744Z,23.92
2018-07-03T11:15:30.503Z,23.92
2018-07-03T11:18:00.280Z,23.69
2018-07-03T11:20:30.009Z,23.68
2018-07-03T11:22:59.855Z,23.63
2018-07-03T11:25:29.684Z,23.64
2018-07-03T11:27:59.480Z,23.86
2018-07-03T11:30:29.532Z,24.05
2018-07-03T11:32:59.494Z,24.10
2018-07-03T11:35:29.906Z,24.24
2018-07-03T11:37:59.728Z,24.14
2018-07-03T11:40:29.672Z,24.17
2018-07-03T11:42:59.642Z,24.06
2018-07-03T11:45:29.458Z,24.29
2018-07-03T11:47:59.400Z,24.22
2018-07-03T11:50:29.216Z,24.07
2018-07-03T11:52:59.061Z,24.07
2018-07-03T11:55:28.910Z,24.14
2018-07-03T11:57:58.943Z,24.49
2018-07-03T12:00:28.786Z,24.65
2018-07-03T12:02:58.573Z,24.70
2018-07-03T12:05:28.373Z,24.74
2018-07-03T12:07:58.282Z,24.60
2018-07-03T12:10:28.236Z,24.41
2018-07-03T12:12:58.131Z,24.41
2018-07-03T12:15:28.001Z,24.33
2018-07-03T12:17:57.774Z,24.58
2018-07-03T12:20:27.657Z,24.81
2018-07-03T12:22:57.659Z,24.90
2018-07-03T12:25:27.531Z,24.94
2018-07-03T12:27:57.379Z,25.04
2018-07-03T12:30:27.339Z,25.10
2018-07-03T12:32:57.197Z,25.04
2018-07-03T12:35:26.966Z,24.96
2018-07-03T12:37:56.871Z,24.85
2018-07-03T12:40:26.617Z,25.18
2018-07-03T12:42:56.527Z,25.18
2018-07-03T12:45:26.361Z,25.17
2018-07-03T12:47:56.229Z,25.41
2018-07-03T12:50:26.139Z,25.41
2018-07-03T12:52:56.063Z,25.37
2018-07-03T12:55:25.602Z,25.38
2018-07-03T12:57:55.607Z,25.50
2018-07-03T13:00:25.538Z,25.35
2018-07-03T13:02:55.491Z,25.20
2018-07-03T13:05:25.853Z,25.19
2018-07-03T13:07:55.701Z,25.36
2018-07-03T13:10:25.579Z,25.58
2018-07-03T13:12:55.479Z,25.60
2018-07-03T13:15:25.485Z,25.66
2018-07-03T13:17:55.341Z,25.82
2018-07-03T13:20:25.233Z,25.67
2018-07-03T13:22:55.798Z,25.67
2018-07-03T13:25:25.659Z,25.43
2018-07-03T13:27:55.553Z,25.45
2018-07-03T13:30:25.415Z,25.63
2018-07-03T13:32:55.266Z,25.54
2018-07-03T13:35:25.079Z,25.85
2018-07-03T13:37:57.941Z,25.83
2018-07-03T13:40:27.817Z,25.57
2018-07-03T13:42:57.730Z,25.66
2018-07-03T13:45:27.650Z,25.69
2018-07-03T13:47:57.689Z,25.78
2018-07-03T13:50:27.668Z,25.83
2018-07-03T13:52:59.466Z,25.96
2018-07-03T13:55:29.441Z,25.85
2018-07-03T13:57:59.249Z,25.78
2018-07-03T14:00:29.241Z,26.08
2018-07-03T14:02:59.211Z,25.91
2018-07-03T14:05:29.082Z,25.62
2018-07-03T14:07:58.958Z,25.82
2018-07-03T14:10:29.605Z,25.71
2018-07-03T14:12:59.425Z,25.99
2018-07-03T14:15:29.437Z,26.08
2018-07-03T14:18:00.420Z,25.97
2018-07-03T14:20:30.789Z,26.00
2018-07-03T14:23:00.722Z,26.11
2018-07-03T14:25:30.654Z,26.25
2018-07-03T14:28:00.570Z,26.21
2018-07-03T14:30:30.519Z,26.20
2018-07-03T14:33:00.344Z,26.23
2018-07-03T14:35:30.296Z,26.29
2018-07-03T14:38:00.353Z,26.28
2018-07-03T14:40:31.329Z,26.18
2018-07-03T14:43:01.699Z,26.13
2018-07-03T14:45:31.726Z,26.14
2018-07-03T14:48:01.600Z,26.01
2018-07-03T14:50:31.517Z,26.15
2018-07-03T14:53:01.346Z,26.18
2018-07-03T14:55:31.194Z,26.22
2018-07-03T14:58:01.242Z,26.36
2018-07-03T15:00:31.122Z,26.39
2018-07-03T15:03:01.250Z,26.32
2018-07-03T15:05:31.101Z,26.33
2018-07-03T15:08:00.930Z,26.41
2018-07-03T15:10:30.828Z,26.59
2018-07-03T15:13:00.766Z,26.69
2018-07-03T15:15:30.646Z,26.84
2018-07-03T15:18:00.564Z,26.77
2018-07-03T15:20:30.636Z,26.51
2018-07-03T15:23:00.400Z,26.42
2018-07-03T15:25:30.436Z,26.59
2018-07-03T15:28:00.458Z,26.61
2018-07-03T15:30:30.703Z,26.51
2018-07-03T15:33:00.612Z,26.45
2018-07-03T15:35:30.570Z,26.50
2018-07-03T15:38:00.424Z,26.57
2018-07-03T15:40:30.749Z,26.54
2018-07-03T15:43:01.707Z,26.42
2018-07-03T15:45:31.623Z,26.40
2018-07-03T15:48:05.716Z,26.27
2018-07-03T15:50:35.827Z,26.39
2018-07-03T15:53:06.373Z,26.58
2018-07-03T15:55:36.787Z,26.80
2018-07-03T15:58:07.102Z,26.80
2018-07-03T16:00:37.991Z,26.91
2018-07-03T16:03:24.821Z,27.07
2018-07-03T16:07:12.457Z,27.03
2018-07-03T16:09:42.609Z,27.13
2018-07-03T16:12:14.485Z,27.10
2018-07-03T16:14:45.854Z,27.09
2018-07-03T16:17:16.869Z,27.17
2018-07-03T16:19:52.063Z,27.23
2018-07-03T16:22:21.985Z,27.26
2018-07-03T16:24:52.122Z,27.34
2018-07-03T16:27:22.334Z,27.73
2018-07-03T16:29:52.145Z,27.86
2018-07-03T16:32:22.029Z,28.06
2018-07-03T16:34:52.065Z,28.02
2018-07-03T16:37:22.478Z,28.14
2018-07-03T16:39:52.679Z,28.16
2018-07-03T16:42:22.711Z,27.85
2018-07-03T16:44:52.981Z,27.91
2018-07-03T16:47:23.259Z,28.15
2018-07-03T16:49:53.462Z,28.34
2018-07-03T16:52:23.977Z,28.23
2018-07-03T16:54:54.942Z,28.21
2018-07-03T16:57:24.817Z,28.19
2018-07-03T16:59:54.640Z,27.89
2018-07-03T17:02:24.581Z,28.52
2018-07-03T17:04:54.431Z,29.02
2018-07-03T17:07:24.372Z,29.27
2018-07-03T17:09:55.091Z,29.60
2018-07-03T17:12:25.019Z,29.62
2018-07-03T17:14:54.692Z,29.75
2018-07-03T17:17:25.027Z,29.73
2018-07-03T17:19:54.847Z,29.85
2018-07-03T17:22:25.205Z,29.69
2018-07-03T17:24:55.009Z,29.71
2018-07-03T17:27:25.330Z,30.14
2018-07-03T17:29:55.443Z,30.29
2018-07-03T17:32:25.724Z,30.34
2018-07-03T17:34:55.690Z,30.27
2018-07-03T17:37:25.926Z,30.40
2018-07-03T17:40:12.632Z,30.61
2018-07-03T17:42:59.938Z,31.01
2018-07-03T17:45:47.409Z,31.16
2018-07-03T17:48:17.449Z,30.62
2018-07-03T17:50:47.246Z,30.68
2018-07-03T17:53:17.080Z,30.51
2018-07-03T17:55:47.301Z,31.06
2018-07-03T17:58:17.256Z,31.26
2018-07-03T18:00:47.133Z,31.74
2018-07-03T18:03:16.973Z,32.10
2018-07-03T18:05:46.889Z,32.04
2018-07-03T18:08:16.684Z,32.10
2018-07-03T18:10:46.666Z,32.03
2018-07-03T18:13:16.821Z,30.96
2018-07-03T18:15:46.669Z,30.58
2018-07-03T18:18:16.469Z,29.93
2018-07-03T18:20:48.236Z,29.27
2018-07-03T18:23:21.502Z,28.72
2018-07-03T18:25:51.448Z,28.00
2018-07-03T18:28:21.328Z,27.46
2018-07-03T18:30:51.164Z,27.02
2018-07-03T18:33:20.979Z,26.47
2018-07-03T18:35:51.798Z,25.93
2018-07-03T18:38:21.668Z,25.66
2018-07-03T18:40:52.139Z,25.30
2018-07-03T18:43:22.081Z,24.92
2018-07-03T18:45:52.538Z,24.57
2018-07-03T18:48:22.639Z,24.28
2018-07-03T18:50:52.516Z,24.02
2018-07-03T18:53:23.399Z,23.84
2018-07-03T18:55:53.800Z,23.59
2018-07-03T18:58:24.357Z,23.35
2018-07-03T19:00:54.620Z,23.08
2018-07-03T19:03:24.998Z,22.80
2018-07-03T19:05:54.885Z,22.59
2018-07-03T19:08:41.180Z,22.39
2018-07-03T19:11:14.656Z,22.11
2018-07-03T19:13:46.338Z,21.76
2018-07-03T19:16:17.345Z,21.72
2018-07-03T19:18:47.850Z,21.58
2018-07-03T19:21:22.028Z,21.37
2018-07-03T19:23:54.797Z,21.18
2018-07-03T19:26:27.634Z,21.02
2018-07-03T19:28:57.672Z,20.90
2018-07-03T19:31:29.461Z,20.76
2018-07-03T19:33:59.426Z,20.63
2018-07-03T19:36:30.257Z,20.46
2018-07-03T19:39:00.337Z,20.36
2018-07-03T19:41:35.697Z,20.22
2018-07-03T19:44:09.524Z,20.13
2018-07-03T19:46:44.230Z,20.02
2018-07-03T19:54:33.333Z,19.94
2018-07-03T19:57:03.594Z,19.55
2018-07-03T19:59:34.249Z,19.47
2018-07-03T20:02:05.076Z,19.37
2018-07-03T20:07:43.991Z,19.21
2018-07-03T20:10:23.653Z,19.04
2018-07-03T20:12:53.859Z,18.92
2018-07-03T20:15:24.118Z,18.84
2018-07-03T20:17:55.525Z,18.81
2018-07-03T20:21:02.091Z,18.83
2018-07-03T20:23:32.310Z,18.77
2018-07-03T20:26:03.785Z,18.74
2018-07-03T20:28:34.636Z,18.63
2018-07-03T20:31:04.694Z,18.55
2018-07-03T20:33:34.950Z,18.49
2018-07-03T20:36:04.929Z,18.50
2018-07-03T20:38:35.411Z,18.47
2018-07-03T20:41:08.227Z,18.35
2018-07-03T20:43:39.572Z,18.17
2018-07-03T20:46:11.366Z,18.13
2018-07-03T20:48:42.564Z,18.08
2018-07-03T20:51:12.628Z,17.98
2018-07-03T20:53:42.224Z,17.89
2018-07-03T20:56:12.531Z,17.86
2018-07-03T20:58:42.469Z,17.79
2018-07-03T21:01:12.413Z,17.80
2018-07-03T21:03:42.257Z,17.81
2018-07-03T21:06:12.396Z,17.77
2018-07-03T21:08:42.305Z,17.78
2018-07-03T21:11:12.282Z,17.73
2018-07-03T21:13:42.163Z,17.60
2018-07-03T21:16:12.163Z,17.50
2018-07-03T21:18:42.053Z,17.48
2018-07-03T21:21:11.977Z,17.48
2018-07-03T21:23:42.012Z,17.42
2018-07-03T21:26:11.856Z,17.38
2018-07-03T21:28:41.279Z,17.34
2018-07-03T21:31:11.223Z,17.31
2018-07-03T21:33:43.131Z,17.31
2018-07-03T21:36:13.909Z,17.30
2018-07-03T21:38:44.013Z,17.30
2018-07-03T21:41:14.596Z,17.29
2018-07-03T21:43:45.038Z,17.25
2018-07-03T21:46:16.129Z,17.22
2018-07-03T21:48:49.006Z,17.18
2018-07-03T21:51:20.196Z,17.13
2018-07-03T21:53:52.154Z,17.04
2018-07-03T21:56:22.445Z,16.11
2018-07-03T21:58:53.816Z,17.00
2018-07-03T22:01:27.073Z,16.95
2018-07-03T22:03:58.621Z,16.92
2018-07-03T22:06:30.205Z,16.83
2018-07-03T22:09:03.274Z,16.75
2018-07-03T22:11:35.008Z,16.74
2018-07-03T22:14:05.701Z,16.72
2018-07-03T22:16:36.407Z,16.66
2018-07-03T22:19:07.838Z,16.62
2018-07-03T22:21:40.761Z,16.52
2018-07-03T22:24:16.480Z,16.44
2018-07-03T22:26:46.792Z,16.33
2018-07-03T22:29:18.458Z,16.31
2018-07-03T22:31:49.896Z,16.31
2018-07-03T22:34:20.821Z,16.31
2018-07-03T22:36:50.733Z,16.30
2018-07-03T22:39:24.309Z,16.30
2018-07-03T22:41:55.905Z,16.28
2018-07-03T22:44:28.180Z,16.23
2018-07-03T22:46:59.929Z,16.19
2018-07-03T22:49:33.210Z,16.13
2018-07-03T22:52:05.929Z,16.10
2018-07-03T22:54:35.836Z,16.07
2018-07-03T22:57:07.304Z,16.06
2018-07-03T22:59:37.160Z,16.02
2018-07-03T23:02:07.885Z,15.96
2018-07-03T23:04:38.488Z,15.92
2018-07-03T23:07:08.440Z,15.85
2018-07-03T23:09:37.943Z,15.86
2018-07-03T23:12:13.100Z,15.88
2018-07-03T23:14:44.552Z,15.87
2018-07-03T23:17:16.018Z,15.84
2018-07-03T23:19:47.180Z,15.73
2018-07-03T23:22:17.847Z,15.66
2018-07-03T23:24:49.655Z,15.60
2018-07-03T23:27:19.592Z,15.61
2018-07-03T23:29:49.455Z,15.59
2018-07-03T23:32:19.488Z,15.57
2018-07-03T23:34:52.133Z,15.54
2018-07-03T23:37:22.174Z,15.52
2018-07-03T23:39:52.173Z,15.49
2018-07-03T23:42:22.336Z,15.45
2018-07-03T23:44:52.899Z,15.43
2018-07-03T23:47:39.659Z,15.46
2018-07-03T23:50:26.319Z,15.45
2018-07-03T23:53:13.049Z,15.44
2018-07-03T23:55:59.578Z,15.43
2018-07-03T23:58:48.727Z,15.41
